This is the latest recevied weather packets stored in our database for station/object KC7YCE. If no packets are shown the sender has not sent any weather packets the latest 10 day(s).
| Time | Temp. | Humidity | Pressure | Rain* | Wind** | Luminosity | Snow |
|---|---|---|---|---|---|---|---|
| 1777870365 | 2.78° C | 57% | 1019.2 hPa | 0 mm | - | - | - |
| 1777869765 | 3.33° C | 55% | 1019.3 hPa | 0 mm | - | - | - |
| 1777869135 | 3.89° C | 52% | 1019.3 hPa | 0 mm | - | - | - |
| 1777868535 | 4.44° C | 52% | 1019.3 hPa | 0 mm | - | - | - |
| 1777867935 | 4.44° C | 51% | 1019.2 hPa | 0 mm | - | - | - |
| 1777867335 | 4.44° C | 51% | 1019.2 hPa | 0 mm | - | - | - |
| 1777866736 | 4.44° C | 51% | 1019.3 hPa | 0 mm | - | - | - |
| 1777866135 | 4.44° C | 49% | 1019.2 hPa | 0 mm | - | - | - |
| 1777864904 | 5.56° C | 46% | 1019 hPa | 0 mm | - | - | - |
| 1777864306 | 6.11° C | 44% | 1019 hPa | 0 mm | - | - | - |
| 1777863704 | 6.67° C | 41% | 1018.9 hPa | 0 mm | - | - | - |
| 1777862474 | 7.78° C | 38% | 1018.8 hPa | 0 mm | - | - | - |
| 1777861874 | 8.89° C | 35% | 1018.8 hPa | 0 mm | - | - | - |
| 1777860674 | 10.56° C | 30% | 1018.7 hPa | 0 mm | - | - | - |
| 1777860044 | 11.11° C | 29% | 1018.6 hPa | 0 mm | - | - | - |
| 1777859445 | 11.67° C | 26% | 1018.6 hPa | 0 mm | - | - | - |
| 1777858844 | 12.22° C | 26% | 1018.6 hPa | 0 mm | - | - | - |
| 1777858244 | 12.22° C | 26% | 1018.6 hPa | 0 mm | - | - | - |
| 1777857649 | 12.78° C | 24% | 1018.7 hPa | 0 mm | - | - | - |
| 1777857045 | 13.33° C | 25% | 1018.7 hPa | 0 mm | - | - | - |
| 1777856443 | 13.33° C | 23% | 1018.7 hPa | 0 mm | - | - | - |
| 1777855843 | 13.89° C | 23% | 1018.7 hPa | 0 mm | - | - | - |
| 1777855214 | 14.44° C | 22% | 1018.8 hPa | 0 mm | - | - | - |
| 1777854613 | 14.44° C | 23% | 1018.9 hPa | 0 mm | - | - | - |
| 1777854013 | 15° C | 23% | 1018.9 hPa | 0 mm | - | - | - |
* Rain latest hour (hover to see other rain measurements)
** Current wind speed in m/s (hover to see current wind gust speed)